Time;durP1;ratioP1;P1;durP2;ratioP2;P2;SDS_P1;SDS_P2;PMS_P1;PMS_P2;Temp;Humidity;BMP_temperature;BMP_pressure;BME280_temperature;BME280_humidity;BME280_pressure;Samples;Min_cycle;Max_cycle;Signal;HPM_P1;HPM_P2
2022/07/05 00:02:25;;;;;;;;;;;14.60;99.40;;;;;;5017999;28;19905;-67
2022/07/05 00:04:52;;;;;;;;;;;14.50;99.30;;;;;;5020605;28;19905;-67
2022/07/05 00:07:19;;;;;;;;;;;14.50;99.30;;;;;;5020170;28;19909;-67
2022/07/05 00:09:48;;;;;;;;;;;14.40;99.20;;;;;;5013561;28;19909;-67
2022/07/05 00:12:15;;;;;;;;;;;14.40;99.00;;;;;;5014033;28;20282;-66
2022/07/05 00:14:42;;;;;;;;;;;14.50;99.10;;;;;;5014059;28;19906;-66
2022/07/05 00:17:09;;;;;;;;;;;14.60;99.10;;;;;;5013761;28;19928;-67
2022/07/05 00:19:35;;;;;;;;;;;14.50;99.00;;;;;;5012591;28;20310;-66
2022/07/05 00:22:02;;;;;;;;;;;14.50;99.00;;;;;;5012928;28;20375;-67
2022/07/05 00:24:28;;;;;;;;;;;14.40;99.00;;;;;;5013400;28;19905;-66
2022/07/05 00:26:55;;;;;;;;;;;14.40;99.00;;;;;;5013404;28;19912;-66
2022/07/05 00:29:21;;;;;;;;;;;14.40;99.00;;;;;;5013571;28;19982;-66
2022/07/05 00:31:48;;;;;;;;;;;14.40;99.00;;;;;;5013604;28;19905;-67
2022/07/05 00:34:14;;;;;;;;;;;14.40;99.00;;;;;;5013436;28;19951;-66
2022/07/05 00:36:41;;;;;;;;;;;14.40;99.00;;;;;;5031394;28;19944;-65
2022/07/05 00:39:08;;;;;;;;;;;14.40;99.00;;;;;;5033236;28;20283;-67
2022/07/05 00:41:34;;;;;;;;;;;14.40;99.00;;;;;;5033306;28;19948;-66
2022/07/05 00:44:04;;;;;;;;;;;14.40;99.00;;;;;;5033258;28;20004;-67
2022/07/05 00:46:31;;;;;;;;;;;14.50;99.00;;;;;;5032630;28;19995;-66
2022/07/05 00:48:58;;;;;;;;;;;14.60;98.90;;;;;;5032959;28;19924;-64
2022/07/05 00:51:25;;;;;;;;;;;14.60;98.80;;;;;;5033355;28;19987;-65
2022/07/05 00:53:51;;;;;;;;;;;14.70;98.70;;;;;;5033021;28;20333;-65
2022/07/05 00:56:18;;;;;;;;;;;14.60;98.60;;;;;;5033216;28;19905;-67
2022/07/05 00:58:45;;;;;;;;;;;14.60;98.60;;;;;;5032745;28;20285;-66
2022/07/05 01:01:11;;;;;;;;;;;14.50;98.60;;;;;;5033023;28;19905;-65
2022/07/05 01:03:38;;;;;;;;;;;14.50;98.60;;;;;;5032756;28;19959;-65
2022/07/05 01:06:08;;;;;;;;;;;14.40;98.40;;;;;;5032744;28;19909;-66
2022/07/05 01:08:35;;;;;;;;;;;14.50;98.60;;;;;;5032203;28;19940;-66
2022/07/05 01:11:02;;;;;;;;;;;14.60;98.80;;;;;;5015150;28;20008;-66
2022/07/05 01:13:28;;;;;;;;;;;14.60;98.80;;;;;;5032717;28;19915;-65
2022/07/05 01:15:55;;;;;;;;;;;14.50;98.70;;;;;;5032168;28;19905;-65
2022/07/05 01:18:21;;;;;;;;;;;14.60;98.60;;;;;;5032583;28;20382;-66
2022/07/05 01:20:48;;;;;;;;;;;14.50;98.20;;;;;;5032433;28;19944;-67
2022/07/05 01:23:15;;;;;;;;;;;14.50;98.10;;;;;;5032288;28;19992;-65
2022/07/05 01:25:41;;;;;;;;;;;14.60;98.10;;;;;;5032305;28;19909;-65
2022/07/05 01:28:08;;;;;;;;;;;14.70;98.30;;;;;;5032205;28;19936;-65
2022/07/05 01:30:35;;;;;;;;;;;14.70;98.40;;;;;;5032130;28;20332;-66
2022/07/05 01:33:02;;;;;;;;;;;14.70;98.50;;;;;;5032439;28;19912;-66
2022/07/05 01:35:28;;;;;;;;;;;14.60;98.40;;;;;;5032261;28;19936;-65
2022/07/05 01:37:55;;;;;;;;;;;14.70;98.50;;;;;;5032369;28;19999;-65
2022/07/05 01:40:21;;;;;;;;;;;14.60;98.40;;;;;;5031826;28;19916;-65
2022/07/05 01:42:48;;;;;;;;;;;14.50;98.30;;;;;;5032315;28;20018;-66
2022/07/05 01:45:39;;;;;;;;;;;14.50;98.20;;;;;;5032285;28;19905;-64
2022/07/05 01:48:01;;;;;;;;;;;14.60;98.40;;;;;;5031745;28;19939;-64
2022/07/05 01:50:28;;;;;;;;;;;14.60;98.60;;;;;;5031686;28;20291;-64
2022/07/05 01:52:54;;;;;;;;;;;14.60;98.60;;;;;;5032363;28;19988;-64
2022/07/05 01:55:21;;;;;;;;;;;14.60;98.70;;;;;;5032267;28;19909;-64
2022/07/05 01:57:47;;;;;;;;;;;14.60;98.60;;;;;;5032229;28;20018;-65
2022/07/05 02:00:14;;;;;;;;;;;14.70;98.60;;;;;;5036175;28;20327;-65
2022/07/05 02:02:43;;;;;;;;;;;14.70;98.50;;;;;;5035888;28;20322;-64
2022/07/05 02:05:10;;;;;;;;;;;14.60;98.30;;;;;;5036147;28;19909;-64
2022/07/05 02:07:36;;;;;;;;;;;14.50;97.80;;;;;;5016459;28;19924;-65
2022/07/05 02:10:03;;;;;;;;;;;14.60;97.70;;;;;;5016112;28;19937;-64
2022/07/05 02:12:30;;;;;;;;;;;14.60;97.40;;;;;;5016107;28;19960;-65
2022/07/05 02:14:57;;;;;;;;;;;14.70;97.40;;;;;;5016986;28;19992;-64
2022/07/05 02:17:23;;;;;;;;;;;14.70;97.30;;;;;;5018765;28;19920;-64
2022/07/05 02:19:50;;;;;;;;;;;14.70;97.30;;;;;;5017868;28;19996;-65
2022/07/05 02:22:16;;;;;;;;;;;14.70;96.70;;;;;;5006601;28;19910;-63
2022/07/05 02:24:43;;;;;;;;;;;14.80;96.30;;;;;;5016243;28;19912;-65
2022/07/05 02:27:09;;;;;;;;;;;14.90;94.60;;;;;;5017334;28;19913;-64
2022/07/05 02:29:36;;;;;;;;;;;15.00;94.10;;;;;;5017682;28;19916;-64
2022/07/05 02:32:03;;;;;;;;;;;15.10;93.80;;;;;;5017759;28;19944;-64
2022/07/05 02:34:29;;;;;;;;;;;15.10;93.00;;;;;;5020796;28;20367;-64
2022/07/05 02:36:56;;;;;;;;;;;15.20;93.10;;;;;;5029550;28;20003;-64
2022/07/05 02:39:22;;;;;;;;;;;15.30;92.30;;;;;;5015593;28;19905;-65
2022/07/05 02:41:49;;;;;;;;;;;15.30;93.10;;;;;;5017704;28;19977;-64
2022/07/05 02:44:15;;;;;;;;;;;15.20;92.60;;;;;;5017622;28;19965;-64
2022/07/05 02:46:42;;;;;;;;;;;15.20;93.00;;;;;;5020336;28;19916;-64
2022/07/05 02:49:08;;;;;;;;;;;15.20;90.50;;;;;;5018099;28;20011;-65
2022/07/05 02:51:35;;;;;;;;;;;15.20;91.20;;;;;;5021350;28;19904;-65
2022/07/05 02:54:01;;;;;;;;;;;15.30;89.80;;;;;;5018654;28;20000;-64
2022/07/05 02:56:28;;;;;;;;;;;15.30;89.90;;;;;;5021620;28;19996;-64
2022/07/05 02:58:55;;;;;;;;;;;15.30;90.20;;;;;;5020460;28;19999;-64
2022/07/05 03:01:21;;;;;;;;;;;15.30;90.60;;;;;;5021333;28;20260;-64
2022/07/05 03:03:48;;;;;;;;;;;15.30;90.40;;;;;;5023109;28;19905;-65
2022/07/05 03:06:14;;;;;;;;;;;15.30;90.10;;;;;;5020094;28;19940;-64
2022/07/05 03:08:41;;;;;;;;;;;15.30;90.20;;;;;;5014404;28;19917;-65
2022/07/05 03:11:08;;;;;;;;;;;15.30;90.30;;;;;;5015113;28;19905;-65
2022/07/05 03:13:34;;;;;;;;;;;15.20;90.50;;;;;;5015176;28;19921;-66
2022/07/05 03:16:01;;;;;;;;;;;15.10;90.80;;;;;;5015168;28;19909;-65
2022/07/05 03:18:27;;;;;;;;;;;15.20;90.40;;;;;;5007457;28;19909;-66
2022/07/05 03:20:54;;;;;;;;;;;15.10;90.00;;;;;;5008781;28;19912;-65
2022/07/05 03:23:20;;;;;;;;;;;15.20;90.60;;;;;;5014925;28;19913;-65
2022/07/05 03:25:47;;;;;;;;;;;15.20;89.50;;;;;;5003752;28;19956;-65
2022/07/05 03:28:14;;;;;;;;;;;15.30;88.30;;;;;;5014709;28;19925;-65
2022/07/05 03:30:40;;;;;;;;;;;15.40;87.10;;;;;;5015023;28;19952;-64
2022/07/05 03:33:07;;;;;;;;;;;15.40;87.30;;;;;;5016827;28;19916;-64
2022/07/05 03:35:33;;;;;;;;;;;15.50;87.10;;;;;;5024922;28;20412;-64
2022/07/05 03:38:00;;;;;;;;;;;15.60;87.10;;;;;;5019916;28;19932;-65
2022/07/05 03:40:26;;;;;;;;;;;15.70;84.90;;;;;;5014943;28;20363;-66
2022/07/05 03:42:53;;;;;;;;;;;15.70;84.60;;;;;;4998301;28;20356;-65
2022/07/05 03:45:20;;;;;;;;;;;15.70;84.60;;;;;;5017268;28;20244;-64
2022/07/05 03:47:46;;;;;;;;;;;15.80;84.90;;;;;;5016212;28;20004;-65
2022/07/05 03:50:13;;;;;;;;;;;15.80;86.00;;;;;;5018613;28;19928;-67
2022/07/05 03:52:39;;;;;;;;;;;15.70;86.10;;;;;;5017229;28;19905;-65
2022/07/05 03:55:06;;;;;;;;;;;15.60;87.80;;;;;;5020311;28;19945;-67
2022/07/05 03:57:32;;;;;;;;;;;15.50;87.70;;;;;;5017474;28;19913;-65
2022/07/05 03:59:59;;;;;;;;;;;15.40;86.60;;;;;;5013684;28;19912;-65
2022/07/05 04:02:25;;;;;;;;;;;15.50;86.00;;;;;;5013634;28;19906;-67
2022/07/05 04:04:52;;;;;;;;;;;15.50;87.20;;;;;;5013673;28;19984;-66
2022/07/05 04:07:19;;;;;;;;;;;15.50;85.90;;;;;;5013964;28;19917;-66
2022/07/05 04:09:45;;;;;;;;;;;15.50;86.10;;;;;;5012160;28;19913;-66
2022/07/05 04:12:12;;;;;;;;;;;15.50;86.80;;;;;;5013220;28;19909;-65
2022/07/05 04:14:38;;;;;;;;;;;15.30;88.90;;;;;;5022761;28;19940;-65
2022/07/05 04:17:05;;;;;;;;;;;15.20;89.60;;;;;;5017274;28;19960;-66
2022/07/05 04:19:31;;;;;;;;;;;15.20;88.50;;;;;;5010929;28;20000;-65
2022/07/05 04:21:58;;;;;;;;;;;15.20;88.80;;;;;;5027001;28;19956;-65
2022/07/05 04:24:25;;;;;;;;;;;15.30;88.30;;;;;;5014636;28;19909;-64
2022/07/05 04:26:51;;;;;;;;;;;15.30;87.60;;;;;;5013894;28;20351;-66
2022/07/05 04:29:18;;;;;;;;;;;15.40;87.60;;;;;;5013429;28;19966;-65
2022/07/05 04:31:44;;;;;;;;;;;15.50;86.80;;;;;;5013291;28;19905;-63
2022/07/05 04:34:11;;;;;;;;;;;15.60;86.50;;;;;;5013289;28;19968;-66
2022/07/05 04:36:40;;;;;;;;;;;15.60;85.80;;;;;;5030630;28;19956;-66
2022/07/05 04:39:07;;;;;;;;;;;15.70;84.10;;;;;;5033018;28;19905;-66
2022/07/05 04:41:33;;;;;;;;;;;15.80;83.50;;;;;;5033173;28;19905;-63
2022/07/05 04:44:00;;;;;;;;;;;15.80;84.30;;;;;;5033248;28;20276;-66
2022/07/05 04:46:27;;;;;;;;;;;15.80;83.40;;;;;;5033135;28;20247;-64
2022/07/05 04:48:53;;;;;;;;;;;15.80;82.90;;;;;;5032811;28;19916;-64
2022/07/05 04:51:20;;;;;;;;;;;15.80;82.30;;;;;;5032961;28;19915;-64
2022/07/05 04:53:46;;;;;;;;;;;15.90;82.60;;;;;;5032535;28;19905;-64
2022/07/05 04:56:13;;;;;;;;;;;15.90;82.00;;;;;;5032801;28;19905;-64
2022/07/05 04:58:39;;;;;;;;;;;15.90;82.30;;;;;;5032400;28;19928;-63
2022/07/05 05:01:06;;;;;;;;;;;15.90;81.80;;;;;;5032731;28;19905;-65
2022/07/05 05:03:34;;;;;;;;;;;15.90;82.00;;;;;;5032617;28;19936;-64
2022/07/05 05:06:01;;;;;;;;;;;16.00;81.60;;;;;;5032666;28;19995;-65
2022/07/05 05:08:27;;;;;;;;;;;16.00;81.60;;;;;;5032681;28;20283;-65
2022/07/05 05:10:54;;;;;;;;;;;16.00;81.00;;;;;;5032900;28;19928;-64
2022/07/05 05:13:20;;;;;;;;;;;15.90;81.80;;;;;;5032382;28;19928;-64
2022/07/05 05:15:47;;;;;;;;;;;15.90;81.30;;;;;;5032674;28;19996;-65
2022/07/05 05:18:15;;;;;;;;;;;16.00;81.20;;;;;;5032336;28;19971;-65
2022/07/05 05:20:41;;;;;;;;;;;16.00;81.40;;;;;;5032340;28;19905;-65
2022/07/05 05:23:08;;;;;;;;;;;16.00;80.50;;;;;;5032019;28;19909;-65
2022/07/05 05:25:35;;;;;;;;;;;16.00;80.40;;;;;;5032233;28;19905;-64
2022/07/05 05:28:02;;;;;;;;;;;16.00;80.10;;;;;;5032262;28;20375;-63
2022/07/05 05:30:28;;;;;;;;;;;16.00;80.30;;;;;;5014862;28;19913;-64
2022/07/05 05:32:55;;;;;;;;;;;16.00;80.50;;;;;;5005042;28;20003;-65
2022/07/05 05:35:23;;;;;;;;;;;16.00;80.30;;;;;;5015001;28;20374;-68
2022/07/05 05:37:54;;;;;;;;;;;16.10;80.10;;;;;;5009863;28;19912;-66
2022/07/05 05:40:21;;;;;;;;;;;16.10;79.90;;;;;;5009859;28;19909;-63
2022/07/05 05:42:47;;;;;;;;;;;16.10;80.10;;;;;;5006135;28;20055;-63
2022/07/05 05:45:14;;;;;;;;;;;16.10;81.00;;;;;;5009873;28;20007;-65
2022/07/05 05:47:47;;;;;;;;;;;16.10;81.50;;;;;;5009767;28;19913;-64
2022/07/05 05:50:14;;;;;;;;;;;16.00;81.70;;;;;;4987605;28;19976;-65
2022/07/05 05:52:40;;;;;;;;;;;16.00;82.10;;;;;;5005346;28;20287;-63
2022/07/05 05:55:07;;;;;;;;;;;16.00;81.40;;;;;;5009538;28;19938;-64
2022/07/05 05:57:35;;;;;;;;;;;15.90;81.20;;;;;;5007369;28;19965;-64
2022/07/05 06:00:03;;;;;;;;;;;16.00;80.70;;;;;;5009260;28;19920;-65
2022/07/05 06:02:29;;;;;;;;;;;16.00;80.20;;;;;;5005635;28;19916;-64
2022/07/05 06:04:56;;;;;;;;;;;16.00;80.50;;;;;;5009313;28;19913;-64
2022/07/05 06:07:22;;;;;;;;;;;16.00;79.60;;;;;;5009603;28;19975;-64
2022/07/05 06:09:49;;;;;;;;;;;16.00;79.50;;;;;;5009598;28;19912;-65
2022/07/05 06:12:15;;;;;;;;;;;16.00;78.40;;;;;;5009614;28;19917;-64
2022/07/05 06:14:42;;;;;;;;;;;16.20;77.90;;;;;;5007329;28;19917;-64
2022/07/05 06:17:09;;;;;;;;;;;16.20;78.80;;;;;;5009248;28;19956;-64
2022/07/05 06:19:35;;;;;;;;;;;16.10;78.80;;;;;;4996503;28;19921;-66
2022/07/05 06:22:02;;;;;;;;;;;16.10;78.90;;;;;;5007873;28;20066;-65
2022/07/05 06:24:28;;;;;;;;;;;16.10;77.90;;;;;;5005291;28;20022;-65
2022/07/05 06:26:55;;;;;;;;;;;16.10;78.40;;;;;;5009166;28;19913;-64
2022/07/05 06:29:21;;;;;;;;;;;16.10;77.40;;;;;;5007445;28;19917;-64
2022/07/05 06:31:48;;;;;;;;;;;16.00;77.60;;;;;;5009254;28;19916;-65
2022/07/05 06:34:15;;;;;;;;;;;16.10;77.40;;;;;;5009042;28;19975;-65
2022/07/05 06:36:41;;;;;;;;;;;16.10;78.90;;;;;;5026731;28;19927;-65
2022/07/05 06:39:08;;;;;;;;;;;16.00;78.30;;;;;;5010826;28;20336;-65
2022/07/05 06:41:34;;;;;;;;;;;16.00;77.30;;;;;;5021248;28;20343;-64
2022/07/05 06:44:01;;;;;;;;;;;16.10;78.00;;;;;;5029860;28;19913;-65
2022/07/05 06:46:27;;;;;;;;;;;16.10;77.90;;;;;;5024084;28;19914;-65
2022/07/05 06:48:54;;;;;;;;;;;16.10;77.90;;;;;;5008567;28;19921;-65
2022/07/05 06:51:20;;;;;;;;;;;16.00;79.60;;;;;;5032444;28;20260;-65
2022/07/05 06:53:48;;;;;;;;;;;15.90;78.70;;;;;;5032537;28;19913;-65
2022/07/05 06:56:14;;;;;;;;;;;15.90;78.70;;;;;;5032754;28;20266;-65
2022/07/05 06:58:41;;;;;;;;;;;16.00;79.50;;;;;;5032396;28;19913;-65
2022/07/05 07:01:07;;;;;;;;;;;15.90;79.20;;;;;;5003948;28;19913;-67
2022/07/05 07:03:34;;;;;;;;;;;15.90;79.60;;;;;;5014922;28;19974;-65
2022/07/05 07:06:00;;;;;;;;;;;15.80;80.20;;;;;;5005077;28;20309;-65
2022/07/05 07:11:13;;;;;;;;;;;15.70;79.70;;;;;;5001858;28;19913;-64
2022/07/05 07:13:39;;;;;;;;;;;15.70;79.90;;;;;;5011582;28;19921;-65
2022/07/05 07:16:06;;;;;;;;;;;15.80;78.90;;;;;;5011007;28;20020;-64
2022/07/05 07:18:33;;;;;;;;;;;15.80;79.10;;;;;;5014020;28;19913;-62
2022/07/05 07:21:00;;;;;;;;;;;15.80;78.90;;;;;;5012939;28;19951;-63
2022/07/05 07:23:27;;;;;;;;;;;15.80;78.10;;;;;;5009909;28;19910;-64
2022/07/05 07:25:53;;;;;;;;;;;15.80;78.90;;;;;;5001344;28;19917;-65
2022/07/05 07:28:20;;;;;;;;;;;15.80;78.60;;;;;;5009542;28;20431;-65
2022/07/05 07:30:46;;;;;;;;;;;15.80;78.60;;;;;;5005695;28;19917;-63
2022/07/05 07:33:13;;;;;;;;;;;15.90;79.20;;;;;;5017055;28;19917;-64
2022/07/05 07:35:39;;;;;;;;;;;15.80;78.90;;;;;;5013307;28;19996;-64
2022/07/05 07:38:06;;;;;;;;;;;15.90;78.50;;;;;;5013036;28;19914;-64
2022/07/05 07:40:32;;;;;;;;;;;16.00;78.50;;;;;;5011565;28;19909;-64
2022/07/05 07:42:59;;;;;;;;;;;16.00;79.20;;;;;;5011727;28;20351;-65
2022/07/05 07:45:27;;;;;;;;;;;16.00;79.70;;;;;;4983120;28;20415;-64
2022/07/05 07:47:54;;;;;;;;;;;15.90;80.00;;;;;;5008761;28;19921;-65
2022/07/05 07:50:20;;;;;;;;;;;15.90;79.60;;;;;;5012962;28;19922;-67
2022/07/05 07:52:47;;;;;;;;;;;15.90;79.20;;;;;;5009947;28;19905;-64
2022/07/05 07:55:15;;;;;;;;;;;15.90;78.60;;;;;;5005013;28;20415;-65
2022/07/05 07:57:41;;;;;;;;;;;16.00;79.20;;;;;;5007646;28;19934;-64
2022/07/05 08:00:08;;;;;;;;;;;15.90;78.60;;;;;;5010589;28;20356;-64
2022/07/05 08:02:35;;;;;;;;;;;16.00;79.00;;;;;;5010441;28;19909;-65
2022/07/05 08:05:02;;;;;;;;;;;16.00;79.70;;;;;;5010592;28;19916;-65
2022/07/05 08:07:28;;;;;;;;;;;16.00;79.80;;;;;;5009137;28;19921;-66
2022/07/05 08:09:55;;;;;;;;;;;15.90;80.50;;;;;;5000961;28;19909;-64
2022/07/05 08:12:21;;;;;;;;;;;15.90;80.90;;;;;;5004151;28;20009;-66
2022/07/05 08:14:48;;;;;;;;;;;15.90;81.20;;;;;;5004068;28;19920;-64
2022/07/05 08:17:14;;;;;;;;;;;15.90;81.60;;;;;;5003778;28;19909;-64
2022/07/05 08:22:26;;;;;;;;;;;15.60;87.70;;;;;;5010615;28;19920;-65
2022/07/05 08:24:52;;;;;;;;;;;15.20;89.40;;;;;;5011008;28;19913;-63
2022/07/05 08:27:19;;;;;;;;;;;14.90;90.80;;;;;;5010955;28;19972;-64
2022/07/05 08:29:45;;;;;;;;;;;14.80;91.60;;;;;;5007297;28;19925;-66
2022/07/05 08:32:12;;;;;;;;;;;14.70;91.80;;;;;;5010531;28;19910;-64
2022/07/05 08:34:39;;;;;;;;;;;14.70;92.20;;;;;;4999869;28;20346;-64
2022/07/05 08:37:05;;;;;;;;;;;14.70;91.20;;;;;;5013689;28;19919;-64
2022/07/05 08:39:32;;;;;;;;;;;14.70;91.30;;;;;;5012766;28;19913;-65
2022/07/05 08:41:59;;;;;;;;;;;14.70;90.60;;;;;;5018905;28;19975;-64
2022/07/05 08:44:25;;;;;;;;;;;14.70;90.70;;;;;;5030180;28;19909;-65
2022/07/05 08:46:53;;;;;;;;;;;14.80;90.30;;;;;;5008607;28;20260;-65
2022/07/05 08:49:23;;;;;;;;;;;14.90;89.90;;;;;;4998469;28;20319;-65
2022/07/05 08:51:50;;;;;;;;;;;15.00;89.80;;;;;;5016826;28;19940;-64
2022/07/05 08:54:17;;;;;;;;;;;15.10;89.30;;;;;;5001359;28;19921;-65
2022/07/05 08:56:44;;;;;;;;;;;15.10;88.80;;;;;;5012574;28;20032;-64
2022/07/05 08:59:10;;;;;;;;;;;15.20;88.70;;;;;;5014751;28;19916;-64
2022/07/05 09:01:37;;;;;;;;;;;15.30;88.00;;;;;;5014979;28;19906;-64
2022/07/05 09:04:07;;;;;;;;;;;15.30;87.30;;;;;;5010154;28;19956;-65
2022/07/05 09:06:39;;;;;;;;;;;15.30;86.60;;;;;;5015503;28;19913;-65
2022/07/05 09:09:05;;;;;;;;;;;15.30;87.00;;;;;;4993744;28;20009;-65
2022/07/05 09:11:39;;;;;;;;;;;15.40;85.40;;;;;;5010130;28;20363;-64
2022/07/05 09:14:06;;;;;;;;;;;15.30;85.80;;;;;;5010032;28;19910;-65
2022/07/05 09:16:33;;;;;;;;;;;15.30;85.50;;;;;;5008905;28;20208;-65
2022/07/05 09:19:08;;;;;;;;;;;15.30;85.40;;;;;;5009658;28;19909;-65
2022/07/05 09:21:35;;;;;;;;;;;15.40;84.90;;;;;;5010029;28;19917;-65
2022/07/05 09:24:01;;;;;;;;;;;15.40;84.70;;;;;;5009094;28;19917;-65
2022/07/05 09:26:35;;;;;;;;;;;15.40;85.00;;;;;;5009352;28;19905;-64
2022/07/05 09:29:02;;;;;;;;;;;15.50;84.20;;;;;;5007070;28;19917;-65
2022/07/05 09:31:29;;;;;;;;;;;15.50;84.70;;;;;;5009197;28;19917;-66
2022/07/05 09:33:57;;;;;;;;;;;15.50;83.80;;;;;;5009957;28;19909;-66
2022/07/05 09:36:24;;;;;;;;;;;15.60;85.10;;;;;;4993678;28;19996;-65
2022/07/05 09:38:51;;;;;;;;;;;15.60;84.30;;;;;;5010079;28;20023;-63
2022/07/05 09:41:18;;;;;;;;;;;15.50;84.30;;;;;;5009449;28;19913;-63
2022/07/05 09:43:44;;;;;;;;;;;15.50;83.70;;;;;;5029420;28;20027;-63
2022/07/05 09:46:13;;;;;;;;;;;15.50;83.50;;;;;;5029620;28;20405;-64
2022/07/05 09:48:50;;;;;;;;;;;15.60;83.10;;;;;;5027977;28;19920;-63
2022/07/05 09:51:17;;;;;;;;;;;15.60;83.20;;;;;;5029517;28;19920;-63
2022/07/05 09:53:50;;;;;;;;;;;15.60;83.40;;;;;;5029204;28;20374;-63
2022/07/05 09:56:20;;;;;;;;;;;15.60;82.40;;;;;;5029479;28;19912;-63
2022/07/05 09:58:46;;;;;;;;;;;15.70;82.20;;;;;;5026621;28;19909;-62
2022/07/05 10:01:28;;;;;;;;;;;15.70;82.90;;;;;;5019613;28;19913;-63
2022/07/05 10:03:56;;;;;;;;;;;15.70;82.70;;;;;;5026984;28;19909;-63
2022/07/05 10:06:26;;;;;;;;;;;15.70;83.10;;;;;;5029325;28;19955;-63
2022/07/05 10:08:52;;;;;;;;;;;15.70;83.70;;;;;;5028939;28;19960;-63
2022/07/05 10:11:19;;;;;;;;;;;15.70;83.20;;;;;;5029926;28;19905;-62
2022/07/05 10:13:49;;;;;;;;;;;15.70;83.70;;;;;;5027047;28;19913;-64
2022/07/05 10:16:17;;;;;;;;;;;15.70;83.10;;;;;;5019832;28;20291;-62
2022/07/05 10:18:47;;;;;;;;;;;15.60;83.80;;;;;;5007810;28;19959;-63
2022/07/05 10:21:17;;;;;;;;;;;15.50;83.80;;;;;;5005977;28;19909;-64
2022/07/05 10:23:47;;;;;;;;;;;15.60;83.50;;;;;;5010045;28;20315;-63
2022/07/05 10:26:13;;;;;;;;;;;15.60;83.60;;;;;;5006052;28;20371;-68
2022/07/05 10:28:43;;;;;;;;;;;15.50;83.30;;;;;;5009905;28;20357;-65
2022/07/05 10:31:10;;;;;;;;;;;15.60;83.60;;;;;;5013108;28;19909;-65
2022/07/05 10:33:36;;;;;;;;;;;15.60;83.60;;;;;;5004341;28;19999;-68
2022/07/05 10:36:04;;;;;;;;;;;15.60;83.90;;;;;;5004839;28;19936;-65
2022/07/05 10:38:30;;;;;;;;;;;15.60;84.30;;;;;;5024061;28;19936;-67
2022/07/05 10:40:58;;;;;;;;;;;15.70;83.30;;;;;;5023454;28;19913;-66
2022/07/05 10:43:24;;;;;;;;;;;15.70;83.70;;;;;;5014624;28;19913;-65
2022/07/05 10:45:51;;;;;;;;;;;15.70;83.50;;;;;;5011669;28;19960;-65
2022/07/05 10:48:18;;;;;;;;;;;15.70;83.10;;;;;;5009302;28;19917;-64
2022/07/05 10:50:45;;;;;;;;;;;15.70;84.60;;;;;;5012399;28;20307;-64
2022/07/05 10:53:12;;;;;;;;;;;15.60;84.90;;;;;;5012573;28;20004;-67
2022/07/05 10:55:51;;;;;;;;;;;15.50;84.70;;;;;;5012820;28;20268;-67
2022/07/05 10:58:18;;;;;;;;;;;15.50;85.00;;;;;;5010001;28;20271;-66
2022/07/05 11:00:49;;;;;;;;;;;15.60;84.30;;;;;;5009591;28;19952;-63
2022/07/05 11:03:45;;;;;;;;;;;15.50;85.50;;;;;;5012466;28;19959;-63
2022/07/05 11:06:24;;;;;;;;;;;15.50;85.50;;;;;;4998146;28;20155;-64
2022/07/05 11:09:00;;;;;;;;;;;15.50;85.60;;;;;;5011892;28;19918;-64
2022/07/05 11:11:30;;;;;;;;;;;15.60;84.70;;;;;;5007042;28;19913;-64
2022/07/05 11:14:00;;;;;;;;;;;15.60;84.60;;;;;;5012166;28;20272;-63
2022/07/05 11:16:30;;;;;;;;;;;15.60;85.70;;;;;;5012030;28;19909;-64
2022/07/05 11:19:07;;;;;;;;;;;15.50;85.50;;;;;;5008764;28;19918;-65
2022/07/05 11:21:33;;;;;;;;;;;15.40;85.40;;;;;;5007606;28;19913;-64
2022/07/05 11:24:18;;;;;;;;;;;15.40;85.50;;;;;;5009085;28;19944;-64
2022/07/05 11:26:45;;;;;;;;;;;15.30;84.90;;;;;;5012480;28;20656;-64
2022/07/05 11:29:31;;;;;;;;;;;15.30;84.00;;;;;;5004537;28;19932;-64
2022/07/05 11:32:07;;;;;;;;;;;15.40;84.10;;;;;;5010730;28;19909;-65
2022/07/05 11:34:34;;;;;;;;;;;15.50;83.10;;;;;;5011962;28;19956;-64
2022/07/05 11:37:19;;;;;;;;;;;15.50;83.20;;;;;;5001280;28;19940;-65
2022/07/05 11:39:46;;;;;;;;;;;15.60;82.60;;;;;;5015591;28;20256;-64
2022/07/05 11:42:21;;;;;;;;;;;15.70;83.00;;;;;;5013651;28;20006;-64
2022/07/05 11:44:51;;;;;;;;;;;15.60;82.60;;;;;;5031804;28;19905;-64
2022/07/05 11:47:17;;;;;;;;;;;15.60;82.30;;;;;;5018393;28;20453;-65
2022/07/05 11:49:53;;;;;;;;;;;15.60;82.50;;;;;;4999588;28;20383;-65
2022/07/05 11:52:25;;;;;;;;;;;15.60;82.40;;;;;;5011839;28;20329;-66
2022/07/05 11:54:51;;;;;;;;;;;15.60;82.60;;;;;;5011811;28;19909;-65
2022/07/05 11:57:18;;;;;;;;;;;15.70;83.20;;;;;;5011822;28;19906;-63
2022/07/05 11:59:45;;;;;;;;;;;15.50;83.70;;;;;;5003335;28;19928;-64
2022/07/05 12:02:11;;;;;;;;;;;15.40;84.30;;;;;;5010498;28;20361;-63
2022/07/05 12:04:38;;;;;;;;;;;15.40;84.50;;;;;;5010932;28;20367;-63
2022/07/05 12:07:05;;;;;;;;;;;15.30;85.00;;;;;;5011375;28;19913;-63
2022/07/05 12:15:05;;;;;;;;;;;15.40;84.30;;;;;;5011219;28;19917;-64
2022/07/05 12:17:33;;;;;;;;;;;15.40;84.00;;;;;;5011054;28;19997;-64
2022/07/05 12:20:00;;;;;;;;;;;15.30;84.20;;;;;;5009720;28;19917;-66
2022/07/05 12:22:33;;;;;;;;;;;15.30;82.80;;;;;;5011412;28;20016;-63
2022/07/05 12:25:01;;;;;;;;;;;15.40;82.50;;;;;;5010863;28;20019;-65
2022/07/05 12:27:27;;;;;;;;;;;15.40;83.50;;;;;;4996786;28;19992;-64
2022/07/05 12:29:55;;;;;;;;;;;15.30;82.70;;;;;;5003253;28;19914;-64
2022/07/05 12:32:21;;;;;;;;;;;15.30;82.80;;;;;;5004971;28;19988;-62
2022/07/05 12:34:48;;;;;;;;;;;15.30;82.50;;;;;;5011648;28;20367;-64
2022/07/05 12:37:24;;;;;;;;;;;15.30;83.60;;;;;;5030677;28;20431;-63
2022/07/05 12:39:50;;;;;;;;;;;15.30;83.50;;;;;;5014417;28;19937;-63
2022/07/05 12:42:33;;;;;;;;;;;15.20;86.00;;;;;;5029875;28;19954;-63
2022/07/05 12:45:09;;;;;;;;;;;14.90;86.70;;;;;;5030319;28;19967;-63
2022/07/05 12:47:53;;;;;;;;;;;14.70;86.90;;;;;;5002363;28;19918;-63
2022/07/05 12:50:20;;;;;;;;;;;14.70;86.50;;;;;;5015256;28;19953;-63
2022/07/05 12:58:55;;;;;;;;;;;14.60;88.80;;;;;;5008745;28;19928;-62
2022/07/05 13:01:22;;;;;;;;;;;14.50;89.20;;;;;;5011747;28;19921;-66
2022/07/05 13:04:15;;;;;;;;;;;14.40;89.70;;;;;;5027801;28;19916;-63
2022/07/05 13:06:42;;;;;;;;;;;14.40;89.70;;;;;;5026260;28;19991;-63
2022/07/05 13:09:09;;;;;;;;;;;14.40;89.30;;;;;;5023721;28;20327;-64
2022/07/05 13:11:36;;;;;;;;;;;14.40;88.70;;;;;;5023802;28;19909;-64
2022/07/05 13:14:02;;;;;;;;;;;14.40;89.00;;;;;;5032777;28;19905;-65
2022/07/05 13:16:29;;;;;;;;;;;14.50;87.90;;;;;;5032689;28;19905;-64
2022/07/05 13:19:06;;;;;;;;;;;14.50;87.50;;;;;;5026984;28;19909;-65
2022/07/05 13:21:32;;;;;;;;;;;14.60;86.70;;;;;;5020159;28;19913;-65
2022/07/05 13:23:59;;;;;;;;;;;14.70;85.90;;;;;;5032044;28;19947;-64
2022/07/05 13:26:25;;;;;;;;;;;14.70;86.70;;;;;;5032612;28;19905;-64
2022/07/05 13:28:52;;;;;;;;;;;14.60;86.90;;;;;;5027500;28;19982;-64
2022/07/05 13:31:18;;;;;;;;;;;14.70;86.00;;;;;;5025404;28;19916;-64
2022/07/05 13:33:45;;;;;;;;;;;14.70;86.60;;;;;;5032549;28;19905;-64
2022/07/05 13:36:12;;;;;;;;;;;14.70;85.90;;;;;;5032499;28;19909;-64
2022/07/05 13:38:39;;;;;;;;;;;14.70;84.90;;;;;;5025974;28;19924;-64
2022/07/05 13:41:05;;;;;;;;;;;14.80;84.00;;;;;;5016546;28;19972;-64
2022/07/05 13:43:32;;;;;;;;;;;14.90;83.00;;;;;;5014881;28;19909;-64
2022/07/05 13:45:58;;;;;;;;;;;15.00;83.20;;;;;;5032352;28;19905;-65
2022/07/05 13:48:25;;;;;;;;;;;15.00;82.60;;;;;;5029913;28;19913;-63
2022/07/05 13:50:52;;;;;;;;;;;15.10;82.70;;;;;;5002853;28;19913;-63
2022/07/05 13:53:20;;;;;;;;;;;15.00;83.40;;;;;;5031670;28;19913;-64
2022/07/05 13:55:46;;;;;;;;;;;15.00;82.50;;;;;;5031730;28;19917;-64
2022/07/05 13:58:13;;;;;;;;;;;15.10;82.90;;;;;;5031688;28;19913;-64
2022/07/05 14:00:39;;;;;;;;;;;15.10;83.00;;;;;;5016505;28;20326;-64
2022/07/05 14:03:06;;;;;;;;;;;15.00;83.20;;;;;;5024258;28;19955;-64
2022/07/05 14:05:32;;;;;;;;;;;15.00;83.50;;;;;;5030121;28;19913;-64
2022/07/05 14:07:59;;;;;;;;;;;14.90;83.00;;;;;;5031885;28;19909;-64
2022/07/05 14:10:25;;;;;;;;;;;15.00;83.30;;;;;;5004849;28;19936;-64
2022/07/05 14:12:52;;;;;;;;;;;15.00;82.40;;;;;;5030426;28;19928;-65
2022/07/05 14:15:19;;;;;;;;;;;15.00;82.10;;;;;;5031736;28;19905;-64
2022/07/05 14:17:45;;;;;;;;;;;15.10;81.20;;;;;;5018075;28;19992;-64
2022/07/05 14:20:13;;;;;;;;;;;15.10;81.40;;;;;;5011668;28;19936;-64
2022/07/05 14:22:39;;;;;;;;;;;15.10;81.80;;;;;;5027260;28;19909;-65
2022/07/05 14:25:06;;;;;;;;;;;15.00;83.00;;;;;;5022228;28;19944;-66
2022/07/05 14:27:32;;;;;;;;;;;14.90;82.90;;;;;;5031523;28;19912;-64
2022/07/05 14:29:59;;;;;;;;;;;15.00;82.80;;;;;;5029959;28;19909;-64
2022/07/05 14:32:26;;;;;;;;;;;14.90;82.60;;;;;;5032054;28;20002;-65
2022/07/05 14:34:52;;;;;;;;;;;14.90;83.10;;;;;;5031934;28;19917;-66
2022/07/05 14:37:20;;;;;;;;;;;15.00;84.60;;;;;;5031956;28;19988;-65